Time;durP1;ratioP1;P1;durP2;ratioP2;P2;SDS_P1;SDS_P2;PMS_P1;PMS_P2;Temp;Humidity;BMP_temperature;BMP_pressure;BME280_temperature;BME280_humidity;BME280_pressure;Samples;Min_cycle;Max_cycle;Signal;HPM_P1;HPM_P2
2023/01/29 00:01:44;;;;;;;;;;;3.70;99.90;;;;;;5037260;28;20325;-74
2023/01/29 00:04:10;;;;;;;;;;;3.70;99.90;;;;;;4976088;28;207043;-74
2023/01/29 00:06:36;;;;;;;;;;;3.60;99.90;;;;;;5038879;28;19924;-74
2023/01/29 00:09:01;;;;;;;;;;;3.70;99.90;;;;;;4998950;28;164776;-74
2023/01/29 00:11:27;;;;;;;;;;;3.60;99.90;;;;;;5034448;28;19932;-73
2023/01/29 00:13:53;;;;;;;;;;;3.70;99.90;;;;;;4994043;28;93839;-73
2023/01/29 00:16:19;;;;;;;;;;;3.60;99.90;;;;;;5027886;28;20599;-73
2023/01/29 00:18:45;;;;;;;;;;;3.70;99.90;;;;;;4981534;28;256222;-73
2023/01/29 00:21:12;;;;;;;;;;;3.70;99.90;;;;;;5032766;28;19928;-73
2023/01/29 00:23:38;;;;;;;;;;;3.70;99.90;;;;;;4991203;28;214554;-73
2023/01/29 00:26:04;;;;;;;;;;;3.70;99.90;;;;;;5037941;28;19925;-73
2023/01/29 00:28:30;;;;;;;;;;;3.70;99.90;;;;;;4982389;28;213318;-74
2023/01/29 00:30:56;;;;;;;;;;;3.70;99.90;;;;;;5070884;28;19954;-73
2023/01/29 00:33:22;;;;;;;;;;;3.70;99.90;;;;;;5012588;28;209379;-73
2023/01/29 00:35:48;;;;;;;;;;;3.60;99.90;;;;;;5039204;28;20387;-74
2023/01/29 00:38:14;;;;;;;;;;;3.70;99.90;;;;;;5034853;28;209324;-73
2023/01/29 00:46:09;;;;;;;;;;;3.70;99.90;;;;;;5032903;28;19932;-73
2023/01/29 00:48:35;;;;;;;;;;;3.70;99.90;;;;;;4992113;28;185945;-73
2023/01/29 00:51:01;;;;;;;;;;;3.80;99.90;;;;;;5044589;28;19929;-73
2023/01/29 00:53:28;;;;;;;;;;;3.80;99.90;;;;;;5004229;28;208458;-73
2023/01/29 00:55:53;;;;;;;;;;;3.80;99.90;;;;;;5021946;28;19920;-73
2023/01/29 00:58:20;;;;;;;;;;;3.80;99.90;;;;;;4992054;28;208978;-73
2023/01/29 01:00:47;;;;;;;;;;;3.70;99.90;;;;;;5069271;28;20360;-74
2023/01/29 01:03:14;;;;;;;;;;;3.90;99.90;;;;;;5042157;28;208926;-73
2023/01/29 01:05:41;;;;;;;;;;;3.80;99.90;;;;;;5013612;28;20066;-73
2023/01/29 01:10:19;;;;;;;;;;;3.80;99.90;;;;;;5051881;28;208783;-74
2023/01/29 01:10:57;;;;;;;;;;;3.90;99.90;;;;;;4983947;28;212096;-73
2023/01/29 01:13:23;;;;;;;;;;;3.80;99.90;;;;;;4978220;28;210046;-74
2023/01/29 01:15:49;;;;;;;;;;;3.90;99.90;;;;;;5048985;28;19939;-74
2023/01/29 01:18:15;;;;;;;;;;;3.80;99.90;;;;;;5011935;28;214157;-74
2023/01/29 01:20:41;;;;;;;;;;;3.80;99.90;;;;;;4994884;28;20031;-73
2023/01/29 01:23:07;;;;;;;;;;;3.80;99.90;;;;;;5024863;28;20659;-73
2023/01/29 01:25:33;;;;;;;;;;;3.90;99.90;;;;;;5016118;28;98802;-74
2023/01/29 01:27:59;;;;;;;;;;;3.90;99.90;;;;;;5026059;28;19924;-73
2023/01/29 01:30:25;;;;;;;;;;;3.90;99.90;;;;;;5007100;28;166006;-73
2023/01/29 01:32:52;;;;;;;;;;;3.90;99.90;;;;;;5028234;28;19932;-74
2023/01/29 01:35:17;;;;;;;;;;;3.90;99.90;;;;;;4988148;28;128134;-73
2023/01/29 01:37:43;;;;;;;;;;;3.80;99.90;;;;;;5040472;28;20353;-73
2023/01/29 01:40:16;;;;;;;;;;;3.80;99.90;;;;;;4990138;28;207217;-74
2023/01/29 01:43:02;;;;;;;;;;;3.90;99.90;;;;;;5036625;28;19931;-73
2023/01/29 01:45:33;;;;;;;;;;;3.80;99.90;;;;;;5016149;28;105277;-73
2023/01/29 01:48:02;;;;;;;;;;;3.90;99.90;;;;;;5042977;28;19936;-73
2023/01/29 01:50:41;;;;;;;;;;;3.80;99.90;;;;;;4992945;28;207143;-73
2023/01/29 01:53:09;;;;;;;;;;;3.90;99.90;;;;;;5050197;28;209481;-73
2023/01/29 01:55:43;;;;;;;;;;;3.80;99.90;;;;;;5019095;28;112668;-72
2023/01/29 01:58:10;;;;;;;;;;;3.90;99.90;;;;;;5031926;28;228826;-73
2023/01/29 02:00:37;;;;;;;;;;;3.90;99.90;;;;;;5010364;28;239721;-72
2023/01/29 02:11:24;;;;;;;;;;;3.80;99.90;;;;;;5018030;28;19977;-72
2023/01/29 02:13:52;;;;;;;;;;;3.90;99.90;;;;;;4993156;28;199123;-73
2023/01/29 02:16:21;;;;;;;;;;;3.90;99.90;;;;;;5048415;28;20030;-73
2023/01/29 02:18:48;;;;;;;;;;;3.90;99.90;;;;;;4981863;28;207446;-73
2023/01/29 02:21:40;;;;;;;;;;;3.90;99.90;;;;;;5015709;28;19928;-71
2023/01/29 02:24:06;;;;;;;;;;;3.80;99.90;;;;;;4976209;28;211539;-71
2023/01/29 02:26:51;;;;;;;;;;;3.90;99.90;;;;;;5027158;28;19979;-73
2023/01/29 02:29:24;;;;;;;;;;;3.90;99.90;;;;;;4985386;28;209434;-73
2023/01/29 02:32:06;;;;;;;;;;;3.90;99.90;;;;;;5041115;28;19933;-74
2023/01/29 02:37:26;;;;;;;;;;;3.90;99.90;;;;;;5032416;28;19924;-74
2023/01/29 02:39:56;;;;;;;;;;;3.90;99.90;;;;;;4985080;28;174418;-74
2023/01/29 02:42:22;;;;;;;;;;;3.90;99.90;;;;;;5038544;28;20344;-73
2023/01/29 02:44:53;;;;;;;;;;;3.90;99.90;;;;;;5014047;28;209030;-74
2023/01/29 02:47:29;;;;;;;;;;;3.90;99.90;;;;;;5045808;28;19924;-73
2023/01/29 02:50:04;;;;;;;;;;;3.90;99.90;;;;;;4995395;28;77681;-73
2023/01/29 02:52:48;;;;;;;;;;;3.90;99.90;;;;;;5042386;28;19948;-74
2023/01/29 02:55:20;;;;;;;;;;;3.90;99.90;;;;;;4972499;28;206646;-73
2023/01/29 02:57:47;;;;;;;;;;;3.90;99.90;;;;;;5047766;28;19928;-73
2023/01/29 03:00:16;;;;;;;;;;;3.90;99.90;;;;;;4976579;28;208171;-73
2023/01/29 03:02:45;;;;;;;;;;;4.00;99.90;;;;;;5049400;28;19925;-73
2023/01/29 03:05:14;;;;;;;;;;;3.90;99.90;;;;;;4979050;28;211822;-73
2023/01/29 03:07:45;;;;;;;;;;;3.90;99.90;;;;;;5062718;28;19929;-72
2023/01/29 03:10:49;;;;;;;;;;;4.00;99.90;;;;;;4966962;28;118047;-73
2023/01/29 03:13:18;;;;;;;;;;;3.90;99.90;;;;;;4991580;28;206974;-73
2023/01/29 03:15:50;;;;;;;;;;;3.90;99.90;;;;;;4986739;28;204078;-73
2023/01/29 03:18:24;;;;;;;;;;;4.00;99.90;;;;;;4977209;28;207903;-74
2023/01/29 03:20:52;;;;;;;;;;;3.90;99.90;;;;;;4959220;28;19926;-74
2023/01/29 03:23:25;;;;;;;;;;;4.00;99.90;;;;;;4954368;28;202647;-72
2023/01/29 03:34:17;;;;;;;;;;;4.00;99.90;;;;;;4970572;28;171180;-72
2023/01/29 03:36:46;;;;;;;;;;;4.00;99.90;;;;;;4996468;28;19928;-72
2023/01/29 03:39:13;;;;;;;;;;;4.00;99.90;;;;;;4960006;28;99662;-73
2023/01/29 03:41:49;;;;;;;;;;;4.00;99.90;;;;;;5005946;28;19996;-73
2023/01/29 03:44:19;;;;;;;;;;;4.00;99.90;;;;;;4978756;28;210133;-72
2023/01/29 03:46:57;;;;;;;;;;;4.00;99.90;;;;;;5059467;28;19928;-72
2023/01/29 03:49:31;;;;;;;;;;;4.00;99.90;;;;;;4989645;28;179378;-72
2023/01/29 03:52:10;;;;;;;;;;;4.00;99.90;;;;;;5046279;28;20434;-74
2023/01/29 03:54:36;;;;;;;;;;;4.10;99.90;;;;;;5008424;28;208851;-73
2023/01/29 03:57:18;;;;;;;;;;;4.00;99.90;;;;;;5028972;28;20501;-72
2023/01/29 04:00:03;;;;;;;;;;;4.00;99.90;;;;;;4992030;28;208933;-72
2023/01/29 04:02:30;;;;;;;;;;;4.00;99.90;;;;;;5045846;28;19925;-73
2023/01/29 04:04:58;;;;;;;;;;;4.00;99.90;;;;;;4983378;28;207812;-72
2023/01/29 04:07:25;;;;;;;;;;;4.00;99.90;;;;;;5039177;28;20397;-73
2023/01/29 04:09:56;;;;;;;;;;;4.00;99.90;;;;;;4974390;28;205668;-72
2023/01/29 04:12:27;;;;;;;;;;;4.00;99.90;;;;;;5021807;28;19956;-73
2023/01/29 04:14:54;;;;;;;;;;;3.90;99.90;;;;;;4998815;28;209622;-73
2023/01/29 04:17:22;;;;;;;;;;;4.00;99.90;;;;;;5037931;28;19933;-74
2023/01/29 04:19:48;;;;;;;;;;;4.00;99.90;;;;;;4978561;28;266957;-73
2023/01/29 04:22:17;;;;;;;;;;;4.00;99.90;;;;;;5042929;28;20325;-73
2023/01/29 04:24:43;;;;;;;;;;;4.00;99.90;;;;;;4994514;28;206227;-74
2023/01/29 04:27:22;;;;;;;;;;;4.00;99.90;;;;;;5038638;28;20444;-75
2023/01/29 04:29:56;;;;;;;;;;;4.00;99.90;;;;;;4996620;28;208600;-74
2023/01/29 04:32:30;;;;;;;;;;;4.00;99.90;;;;;;5028607;28;19939;-74
2023/01/29 04:35:02;;;;;;;;;;;4.00;99.90;;;;;;4987217;28;208791;-73
2023/01/29 04:37:38;;;;;;;;;;;4.00;99.90;;;;;;5054618;28;19936;-73
2023/01/29 04:40:16;;;;;;;;;;;4.00;99.90;;;;;;5005347;28;206266;-73
2023/01/29 04:42:48;;;;;;;;;;;4.00;99.90;;;;;;5040266;28;19924;-73
2023/01/29 04:45:22;;;;;;;;;;;4.00;99.90;;;;;;5019298;28;206843;-73
2023/01/29 04:47:52;;;;;;;;;;;4.00;99.90;;;;;;5040711;28;20644;-75
2023/01/29 04:50:18;;;;;;;;;;;4.10;99.90;;;;;;5006877;28;135974;-74
2023/01/29 04:52:47;;;;;;;;;;;4.00;99.90;;;;;;5060399;28;20415;-74
2023/01/29 04:55:34;;;;;;;;;;;4.00;99.90;;;;;;4989311;28;212827;-73
2023/01/29 04:58:10;;;;;;;;;;;4.00;99.90;;;;;;5031144;28;19924;-74
2023/01/29 05:00:38;;;;;;;;;;;4.00;99.90;;;;;;4994310;28;206148;-73
2023/01/29 05:03:05;;;;;;;;;;;4.00;99.90;;;;;;5064525;28;19940;-74
2023/01/29 05:05:31;;;;;;;;;;;4.00;99.90;;;;;;4980326;28;195950;-73
2023/01/29 05:07:57;;;;;;;;;;;4.00;99.90;;;;;;5059649;28;19924;-73
2023/01/29 05:10:24;;;;;;;;;;;4.10;99.90;;;;;;4999967;28;206157;-73
2023/01/29 05:13:00;;;;;;;;;;;4.10;99.90;;;;;;5060252;28;20401;-74
2023/01/29 05:15:30;;;;;;;;;;;4.10;99.90;;;;;;4986822;28;210162;-74
2023/01/29 05:18:00;;;;;;;;;;;4.10;99.90;;;;;;5040781;28;19925;-74
2023/01/29 05:20:26;;;;;;;;;;;4.10;99.90;;;;;;4998874;28;205171;-73
2023/01/29 05:22:52;;;;;;;;;;;4.10;99.90;;;;;;5044194;28;19924;-74
2023/01/29 05:25:20;;;;;;;;;;;4.10;99.90;;;;;;5002835;28;214209;-73
2023/01/29 05:28:03;;;;;;;;;;;4.10;99.90;;;;;;5025011;28;19928;-74
2023/01/29 05:30:30;;;;;;;;;;;4.20;99.90;;;;;;4997779;28;145740;-73
2023/01/29 05:32:56;;;;;;;;;;;4.10;99.90;;;;;;5043963;28;20300;-73
2023/01/29 05:35:22;;;;;;;;;;;4.10;99.90;;;;;;4985182;28;215666;-74
2023/01/29 05:37:48;;;;;;;;;;;4.00;99.90;;;;;;5025098;28;19924;-73
2023/01/29 05:40:13;;;;;;;;;;;4.00;99.90;;;;;;4981291;28;215474;-73
2023/01/29 05:42:39;;;;;;;;;;;4.10;99.90;;;;;;5041185;28;19939;-72
2023/01/29 05:45:06;;;;;;;;;;;4.00;99.90;;;;;;5008911;28;130539;-71
2023/01/29 05:47:32;;;;;;;;;;;4.00;99.90;;;;;;5057496;28;19925;-73
2023/01/29 05:49:58;;;;;;;;;;;4.00;99.90;;;;;;4994449;28;209567;-74
2023/01/29 05:52:26;;;;;;;;;;;4.00;99.90;;;;;;5039982;28;20511;-73
2023/01/29 05:54:53;;;;;;;;;;;4.00;99.90;;;;;;4983469;28;205039;-72
2023/01/29 05:57:19;;;;;;;;;;;4.00;99.90;;;;;;5037284;28;19929;-71
2023/01/29 05:59:45;;;;;;;;;;;4.00;99.90;;;;;;5002172;28;208015;-71
2023/01/29 06:02:10;;;;;;;;;;;4.00;99.90;;;;;;5026830;28;19971;-71
2023/01/29 06:04:36;;;;;;;;;;;4.00;99.90;;;;;;4988265;28;207031;-72
2023/01/29 06:07:03;;;;;;;;;;;4.00;99.90;;;;;;5047162;28;20527;-71
2023/01/29 06:09:29;;;;;;;;;;;3.90;99.90;;;;;;4987118;28;208367;-71
2023/01/29 06:11:55;;;;;;;;;;;4.00;99.90;;;;;;5042646;28;19928;-71
2023/01/29 06:14:21;;;;;;;;;;;4.00;99.90;;;;;;4977617;28;240328;-71
2023/01/29 06:16:47;;;;;;;;;;;4.00;99.90;;;;;;5022515;28;19927;-72
2023/01/29 06:19:13;;;;;;;;;;;4.00;99.90;;;;;;4997849;28;206648;-72
2023/01/29 06:21:39;;;;;;;;;;;4.00;99.90;;;;;;5027666;28;19978;-72
2023/01/29 06:24:05;;;;;;;;;;;4.00;99.90;;;;;;4986035;28;210938;-72
2023/01/29 06:26:31;;;;;;;;;;;4.00;99.90;;;;;;5066445;28;19928;-71
2023/01/29 06:28:57;;;;;;;;;;;4.00;99.90;;;;;;5017808;28;207794;-72
2023/01/29 06:31:23;;;;;;;;;;;4.00;99.90;;;;;;5070341;28;19927;-72
2023/01/29 06:33:49;;;;;;;;;;;4.10;99.90;;;;;;5005344;28;66697;-72
2023/01/29 06:36:14;;;;;;;;;;;4.00;99.90;;;;;;5043605;28;19925;-72
2023/01/29 06:38:40;;;;;;;;;;;4.00;99.90;;;;;;4985067;28;201777;-71
2023/01/29 06:41:07;;;;;;;;;;;4.00;99.90;;;;;;5056353;28;19940;-71
2023/01/29 06:43:33;;;;;;;;;;;4.00;99.90;;;;;;4996287;28;119959;-71
2023/01/29 06:45:59;;;;;;;;;;;4.00;99.90;;;;;;5019767;28;19932;-71
2023/01/29 06:48:25;;;;;;;;;;;4.10;99.90;;;;;;4987833;28;208451;-71
2023/01/29 06:50:53;;;;;;;;;;;4.00;99.90;;;;;;5045471;28;21193;-71
2023/01/29 06:53:20;;;;;;;;;;;4.00;99.90;;;;;;5016966;28;209174;-72
2023/01/29 06:55:52;;;;;;;;;;;4.00;99.90;;;;;;5022927;28;19920;-71
2023/01/29 06:58:19;;;;;;;;;;;4.00;99.90;;;;;;5010284;28;212524;-71
2023/01/29 07:00:45;;;;;;;;;;;4.00;99.90;;;;;;5023475;28;19939;-70
2023/01/29 07:03:10;;;;;;;;;;;4.00;99.90;;;;;;5023775;28;209455;-72
2023/01/29 07:05:37;;;;;;;;;;;4.00;99.90;;;;;;5008692;28;158418;-71
2023/01/29 07:08:03;;;;;;;;;;;4.00;99.90;;;;;;5041637;28;19925;-71
2023/01/29 07:10:29;;;;;;;;;;;4.00;99.90;;;;;;5006532;28;206659;-71
2023/01/29 07:12:55;;;;;;;;;;;4.00;99.90;;;;;;5047187;28;20270;-71
2023/01/29 07:15:21;;;;;;;;;;;4.00;99.90;;;;;;4972351;28;208145;-72
2023/01/29 07:17:56;;;;;;;;;;;4.00;99.90;;;;;;5025333;28;19955;-71
2023/01/29 07:20:26;;;;;;;;;;;4.00;99.90;;;;;;4988329;28;186941;-70
2023/01/29 07:22:52;;;;;;;;;;;4.00;99.90;;;;;;5063141;28;20365;-71
2023/01/29 07:25:19;;;;;;;;;;;4.00;99.90;;;;;;4998173;28;48432;-71
2023/01/29 07:27:46;;;;;;;;;;;4.00;99.90;;;;;;5060799;28;19920;-70
2023/01/29 07:30:12;;;;;;;;;;;4.00;99.90;;;;;;5011057;28;206864;-71
2023/01/29 07:32:38;;;;;;;;;;;4.00;99.90;;;;;;5048040;28;19940;-71
2023/01/29 07:35:04;;;;;;;;;;;4.10;99.90;;;;;;4999854;28;73707;-70
2023/01/29 07:37:30;;;;;;;;;;;4.00;99.90;;;;;;5044113;28;19925;-70
2023/01/29 07:39:56;;;;;;;;;;;4.00;99.90;;;;;;5021644;28;209260;-71
2023/01/29 07:42:22;;;;;;;;;;;4.00;99.90;;;;;;5044329;28;19966;-71
2023/01/29 07:44:48;;;;;;;;;;;3.90;99.90;;;;;;4999580;28;211939;-71
2023/01/29 07:47:14;;;;;;;;;;;3.90;99.90;;;;;;5060545;28;19924;-71
2023/01/29 07:49:40;;;;;;;;;;;3.80;99.90;;;;;;4997755;28;210062;-70
2023/01/29 07:52:06;;;;;;;;;;;3.80;99.90;;;;;;5048824;28;19925;-70
2023/01/29 07:54:31;;;;;;;;;;;3.80;99.90;;;;;;5002178;28;209027;-71
2023/01/29 07:56:57;;;;;;;;;;;3.80;99.90;;;;;;5035190;28;20424;-70
2023/01/29 07:59:23;;;;;;;;;;;3.80;99.90;;;;;;4994627;28;51877;-70
2023/01/29 08:01:49;;;;;;;;;;;3.80;99.90;;;;;;5045080;28;19928;-70
2023/01/29 08:04:15;;;;;;;;;;;3.90;99.90;;;;;;4998508;28;208368;-70
2023/01/29 08:06:41;;;;;;;;;;;3.90;99.90;;;;;;5012261;28;20019;-71
2023/01/29 08:09:07;;;;;;;;;;;3.90;99.90;;;;;;4984859;28;58741;-71
2023/01/29 08:11:33;;;;;;;;;;;3.90;99.90;;;;;;5035397;28;19948;-71
2023/01/29 08:13:59;;;;;;;;;;;3.90;99.90;;;;;;4981809;28;206796;-72
2023/01/29 08:16:25;;;;;;;;;;;3.90;99.90;;;;;;5030268;28;19924;-72
2023/01/29 08:18:51;;;;;;;;;;;4.00;99.90;;;;;;4989722;28;206186;-71
2023/01/29 08:21:17;;;;;;;;;;;4.00;99.90;;;;;;5058913;28;19929;-71
2023/01/29 08:23:43;;;;;;;;;;;4.00;99.90;;;;;;4993174;28;211733;-71
2023/01/29 08:26:09;;;;;;;;;;;4.00;99.90;;;;;;5040707;28;20313;-72
2023/01/29 08:28:37;;;;;;;;;;;4.10;99.90;;;;;;5010827;28;146116;-72
2023/01/29 08:31:03;;;;;;;;;;;4.10;99.90;;;;;;5043934;28;19924;-71
2023/01/29 08:33:29;;;;;;;;;;;4.10;99.90;;;;;;4988540;28;208637;-71
2023/01/29 08:35:55;;;;;;;;;;;4.10;99.90;;;;;;5070680;28;19931;-71
2023/01/29 08:38:21;;;;;;;;;;;4.10;99.90;;;;;;4998062;28;211553;-72
2023/01/29 08:40:47;;;;;;;;;;;4.10;99.90;;;;;;5060453;28;20290;-71
2023/01/29 08:43:14;;;;;;;;;;;4.10;99.90;;;;;;5044543;28;209984;-71
2023/01/29 08:45:41;;;;;;;;;;;4.10;99.90;;;;;;5010621;28;206923;-71
2023/01/29 08:48:07;;;;;;;;;;;4.10;99.90;;;;;;5028795;28;19925;-71
2023/01/29 08:50:33;;;;;;;;;;;4.20;99.90;;;;;;4962170;28;159594;-71
2023/01/29 08:53:00;;;;;;;;;;;4.20;99.90;;;;;;5036691;28;19924;-71
2023/01/29 08:55:27;;;;;;;;;;;4.20;99.90;;;;;;4989019;28;208609;-71
2023/01/29 08:57:53;;;;;;;;;;;4.20;99.90;;;;;;5004201;28;21575;-71
2023/01/29 09:00:19;;;;;;;;;;;4.20;99.90;;;;;;4988339;28;209481;-71
2023/01/29 09:02:45;;;;;;;;;;;4.20;99.90;;;;;;5017775;28;19925;-71
2023/01/29 09:05:11;;;;;;;;;;;4.20;99.90;;;;;;4971952;28;97721;-70
2023/01/29 09:07:37;;;;;;;;;;;4.30;99.90;;;;;;5022962;28;20331;-70
2023/01/29 09:10:03;;;;;;;;;;;4.30;99.90;;;;;;4984430;28;208031;-70
2023/01/29 09:12:29;;;;;;;;;;;4.40;99.90;;;;;;5039577;28;19929;-71
2023/01/29 09:14:55;;;;;;;;;;;4.40;99.90;;;;;;5018662;28;209293;-71
2023/01/29 09:17:21;;;;;;;;;;;4.40;99.90;;;;;;5040166;28;20023;-72
2023/01/29 09:19:47;;;;;;;;;;;4.40;99.90;;;;;;5008203;28;208971;-71
2023/01/29 09:22:13;;;;;;;;;;;4.40;99.90;;;;;;5042971;28;20298;-71
2023/01/29 09:24:38;;;;;;;;;;;4.50;99.90;;;;;;5004692;28;208455;-71
2023/01/29 09:27:05;;;;;;;;;;;4.40;99.90;;;;;;5046843;28;19927;-71
2023/01/29 09:29:31;;;;;;;;;;;4.50;99.90;;;;;;4993613;28;209118;-71
2023/01/29 09:31:57;;;;;;;;;;;4.40;99.90;;;;;;5042473;28;19928;-70
2023/01/29 09:34:22;;;;;;;;;;;4.50;99.90;;;;;;4990063;28;209751;-71
2023/01/29 09:36:50;;;;;;;;;;;4.50;99.90;;;;;;5047969;28;20270;-69
2023/01/29 09:39:16;;;;;;;;;;;4.60;99.90;;;;;;4983309;28;177721;-71
2023/01/29 09:41:48;;;;;;;;;;;4.60;99.90;;;;;;5009017;28;20671;-71
2023/01/29 09:44:21;;;;;;;;;;;4.60;99.90;;;;;;5009442;28;55273;-71
2023/01/29 09:46:50;;;;;;;;;;;4.60;99.90;;;;;;5060894;28;20008;-72
2023/01/29 09:49:34;;;;;;;;;;;4.70;99.90;;;;;;4970524;28;173060;-71
2023/01/29 09:52:03;;;;;;;;;;;4.70;99.90;;;;;;5038998;28;19928;-70
2023/01/29 09:54:32;;;;;;;;;;;4.70;99.90;;;;;;4973205;28;207585;-72
2023/01/29 09:56:59;;;;;;;;;;;4.70;99.90;;;;;;5049305;28;19928;-71
2023/01/29 09:59:26;;;;;;;;;;;4.70;99.90;;;;;;4975645;28;209444;-72
2023/01/29 10:02:09;;;;;;;;;;;4.70;99.90;;;;;;5040706;28;19936;-72
2023/01/29 10:04:38;;;;;;;;;;;4.70;99.90;;;;;;4964195;28;137249;-71
2023/01/29 10:07:07;;;;;;;;;;;4.70;99.90;;;;;;5055473;28;19928;-71
2023/01/29 10:09:52;;;;;;;;;;;4.80;99.90;;;;;;4997591;28;98045;-71
2023/01/29 10:12:35;;;;;;;;;;;4.70;99.90;;;;;;5031335;28;19939;-71
2023/01/29 10:15:23;;;;;;;;;;;4.80;99.90;;;;;;5002162;28;79612;-71
2023/01/29 10:18:08;;;;;;;;;;;4.70;99.90;;;;;;5020577;28;19925;-70
2023/01/29 10:20:40;;;;;;;;;;;4.70;99.90;;;;;;4985925;28;222776;-71
2023/01/29 10:23:13;;;;;;;;;;;4.70;99.90;;;;;;5051478;28;20993;-71
2023/01/29 10:25:40;;;;;;;;;;;4.70;99.90;;;;;;4980283;28;206434;-71
2023/01/29 10:28:17;;;;;;;;;;;4.70;99.90;;;;;;5037208;28;19932;-71
2023/01/29 10:30:53;;;;;;;;;;;4.70;99.90;;;;;;4973004;28;206819;-71
2023/01/29 10:33:39;;;;;;;;;;;4.80;99.90;;;;;;4964161;28;208384;-71
2023/01/29 10:36:07;;;;;;;;;;;4.70;99.90;;;;;;5038874;28;20585;-71
2023/01/29 10:38:38;;;;;;;;;;;4.70;99.90;;;;;;4996767;28;66823;-71
2023/01/29 10:41:06;;;;;;;;;;;4.70;99.90;;;;;;5046940;28;19929;-70
2023/01/29 10:43:51;;;;;;;;;;;4.70;99.90;;;;;;4990975;28;137423;-72
2023/01/29 10:46:23;;;;;;;;;;;4.70;99.90;;;;;;5048984;28;20409;-71
2023/01/29 10:48:58;;;;;;;;;;;4.70;99.90;;;;;;5043164;28;19925;-72
2023/01/29 10:51:27;;;;;;;;;;;4.80;99.90;;;;;;5042565;28;19928;-72
2023/01/29 10:53:59;;;;;;;;;;;4.80;99.90;;;;;;5001404;28;210345;-71
2023/01/29 10:56:25;;;;;;;;;;;4.80;99.90;;;;;;5044397;28;19921;-72
2023/01/29 10:58:53;;;;;;;;;;;4.80;99.90;;;;;;4983992;28;217842;-69
2023/01/29 11:01:19;;;;;;;;;;;4.80;99.90;;;;;;5036654;28;19924;-71
2023/01/29 11:03:53;;;;;;;;;;;4.80;99.90;;;;;;4978429;28;215055;-70
2023/01/29 11:06:33;;;;;;;;;;;4.80;99.90;;;;;;5030102;28;19928;-71
2023/01/29 11:09:10;;;;;;;;;;;4.80;99.90;;;;;;4984605;28;210204;-70
2023/01/29 11:11:40;;;;;;;;;;;4.80;99.90;;;;;;5037265;28;19931;-71
2023/01/29 11:14:11;;;;;;;;;;;4.80;99.90;;;;;;5014525;28;213057;-72
2023/01/29 11:16:41;;;;;;;;;;;4.70;99.90;;;;;;5048486;28;19928;-71
2023/01/29 11:19:07;;;;;;;;;;;4.70;99.90;;;;;;4983920;28;62120;-72
2023/01/29 11:21:48;;;;;;;;;;;4.70;99.90;;;;;;5003753;28;20541;-72
2023/01/29 11:24:16;;;;;;;;;;;4.70;99.90;;;;;;5001444;28;52398;-71
2023/01/29 11:26:43;;;;;;;;;;;4.80;99.90;;;;;;5045789;28;19928;-70
2023/01/29 11:29:38;;;;;;;;;;;4.80;99.90;;;;;;4999482;28;111264;-70
2023/01/29 11:32:06;;;;;;;;;;;4.80;99.90;;;;;;5049255;28;19928;-70
2023/01/29 11:34:32;;;;;;;;;;;4.80;99.90;;;;;;4998030;28;207770;-71
2023/01/29 11:37:01;;;;;;;;;;;4.80;99.90;;;;;;5051632;28;19928;-71
2023/01/29 11:39:29;;;;;;;;;;;4.90;99.90;;;;;;5011121;28;208203;-71
2023/01/29 11:41:57;;;;;;;;;;;4.90;99.90;;;;;;5062005;28;19935;-71
2023/01/29 11:44:38;;;;;;;;;;;4.90;99.90;;;;;;5005423;28;210573;-71
2023/01/29 11:47:07;;;;;;;;;;;4.90;99.90;;;;;;5050951;28;20046;-71
2023/01/29 11:49:34;;;;;;;;;;;4.90;99.90;;;;;;4973002;28;206452;-71
2023/01/29 11:52:02;;;;;;;;;;;4.90;99.90;;;;;;5051150;28;19931;-70
2023/01/29 11:54:48;;;;;;;;;;;4.90;99.90;;;;;;4991285;28;208741;-71
2023/01/29 11:57:23;;;;;;;;;;;4.90;99.90;;;;;;5038440;28;20294;-71
2023/01/29 11:59:50;;;;;;;;;;;4.90;99.90;;;;;;4983278;28;205768;-70
2023/01/29 12:02:19;;;;;;;;;;;4.90;99.90;;;;;;5043379;28;19924;-71
2023/01/29 12:04:46;;;;;;;;;;;5.00;99.90;;;;;;4972669;28;204889;-71
2023/01/29 12:07:14;;;;;;;;;;;5.00;99.90;;;;;;5035773;28;19928;-70
2023/01/29 12:09:40;;;;;;;;;;;5.10;99.90;;;;;;5012973;28;209935;-70
2023/01/29 12:12:16;;;;;;;;;;;5.00;99.90;;;;;;5019295;28;20301;-71
2023/01/29 12:14:42;;;;;;;;;;;5.00;99.90;;;;;;5000475;28;111518;-71
2023/01/29 12:17:18;;;;;;;;;;;5.00;99.90;;;;;;5034400;28;19928;-71
2023/01/29 12:19:46;;;;;;;;;;;5.00;99.90;;;;;;4948477;28;213449;-70
2023/01/29 12:22:26;;;;;;;;;;;5.10;99.90;;;;;;5034399;28;19931;-71
2023/01/29 12:24:54;;;;;;;;;;;5.00;99.90;;;;;;4986150;28;208477;-71
2023/01/29 12:27:30;;;;;;;;;;;4.90;99.90;;;;;;5050433;28;20654;-72
2023/01/29 12:30:15;;;;;;;;;;;4.90;99.90;;;;;;4997934;28;205857;-71
2023/01/29 12:32:47;;;;;;;;;;;4.90;99.90;;;;;;5041470;28;19947;-71
2023/01/29 12:35:21;;;;;;;;;;;4.90;99.90;;;;;;4983709;28;85625;-72
2023/01/29 12:37:50;;;;;;;;;;;4.90;99.90;;;;;;5036198;28;20423;-71
2023/01/29 12:40:17;;;;;;;;;;;4.80;99.90;;;;;;5001007;28;210649;-71
2023/01/29 12:42:52;;;;;;;;;;;4.80;99.90;;;;;;5044034;28;20309;-69
2023/01/29 12:45:19;;;;;;;;;;;4.80;99.90;;;;;;4979103;28;75801;-69
2023/01/29 12:47:47;;;;;;;;;;;4.70;99.90;;;;;;5051251;28;19925;-71
2023/01/29 12:50:21;;;;;;;;;;;4.80;99.90;;;;;;4992889;28;207122;-71
2023/01/29 12:53:26;;;;;;;;;;;4.80;99.90;;;;;;5057264;28;19928;-71
2023/01/29 12:56:01;;;;;;;;;;;4.80;99.90;;;;;;4889334;28;207012;-69
2023/01/29 12:58:30;;;;;;;;;;;4.80;99.90;;;;;;4926786;28;208707;-71
2023/01/29 13:00:58;;;;;;;;;;;4.80;99.90;;;;;;4974139;28;19925;-70
2023/01/29 13:03:28;;;;;;;;;;;4.80;99.90;;;;;;4931938;28;208118;-70
2023/01/29 13:06:14;;;;;;;;;;;4.80;99.90;;;;;;4986140;28;19929;-70
2023/01/29 13:08:44;;;;;;;;;;;4.80;99.90;;;;;;4952347;28;207917;-70
2023/01/29 13:11:15;;;;;;;;;;;4.80;99.90;;;;;;4981009;28;19933;-71
2023/01/29 13:13:51;;;;;;;;;;;4.80;99.90;;;;;;4939449;28;98566;-70
2023/01/29 13:16:22;;;;;;;;;;;4.90;99.90;;;;;;4977843;28;20682;-72
2023/01/29 13:18:59;;;;;;;;;;;4.90;99.90;;;;;;4924478;28;207162;-71
2023/01/29 13:21:28;;;;;;;;;;;4.90;99.90;;;;;;4964280;28;19933;-71
2023/01/29 13:23:56;;;;;;;;;;;4.80;99.90;;;;;;4928160;28;210481;-71
2023/01/29 13:26:23;;;;;;;;;;;4.80;99.90;;;;;;4989206;28;19935;-71
2023/01/29 13:28:50;;;;;;;;;;;4.80;99.90;;;;;;5007686;28;207914;-69
2023/01/29 13:31:28;;;;;;;;;;;4.80;99.90;;;;;;5050192;28;19924;-71
2023/01/29 13:34:13;;;;;;;;;;;4.80;99.90;;;;;;4979345;28;220944;-71
2023/01/29 13:36:47;;;;;;;;;;;4.80;99.90;;;;;;5025093;28;19951;-71
2023/01/29 13:39:33;;;;;;;;;;;4.80;99.90;;;;;;4991064;28;158407;-70
2023/01/29 13:42:01;;;;;;;;;;;4.80;99.90;;;;;;5019289;28;20510;-70
2023/01/29 13:44:30;;;;;;;;;;;4.70;99.90;;;;;;4990625;28;214360;-71
2023/01/29 13:46:56;;;;;;;;;;;4.70;99.90;;;;;;5036252;28;19920;-71
2023/01/29 13:49:32;;;;;;;;;;;4.70;99.90;;;;;;5003164;28;42188;-70
2023/01/29 13:51:58;;;;;;;;;;;4.70;99.90;;;;;;5036243;28;19921;-70
2023/01/29 13:54:25;;;;;;;;;;;4.60;99.90;;;;;;4987529;28;168896;-71
2023/01/29 13:56:54;;;;;;;;;;;4.60;99.90;;;;;;5037717;28;20418;-71
2023/01/29 13:59:43;;;;;;;;;;;4.60;99.90;;;;;;5007224;28;209483;-72
2023/01/29 14:02:20;;;;;;;;;;;4.60;99.90;;;;;;5022659;28;19924;-71
2023/01/29 14:04:46;;;;;;;;;;;4.60;99.90;;;;;;4979123;28;212867;-71
2023/01/29 14:07:31;;;;;;;;;;;4.60;99.90;;;;;;5061483;28;19924;-71
2023/01/29 14:10:00;;;;;;;;;;;4.60;99.90;;;;;;5021803;28;211585;-70
2023/01/29 14:12:34;;;;;;;;;;;4.50;99.90;;;;;;5063346;28;19921;-69
2023/01/29 14:15:20;;;;;;;;;;;4.50;99.90;;;;;;5001675;28;209067;-71
2023/01/29 14:17:58;;;;;;;;;;;4.50;99.90;;;;;;5055565;28;19925;-71
2023/01/29 14:20:37;;;;;;;;;;;4.50;99.90;;;;;;4995873;28;20354;-71
2023/01/29 14:23:03;;;;;;;;;;;4.40;99.90;;;;;;5037790;28;19955;-69
2023/01/29 14:25:31;;;;;;;;;;;4.50;99.90;;;;;;4965709;28;206728;-72
2023/01/29 14:27:59;;;;;;;;;;;4.40;99.90;;;;;;5060786;28;20419;-71
2023/01/29 14:30:26;;;;;;;;;;;4.40;99.90;;;;;;4974671;28;209709;-71
2023/01/29 14:32:53;;;;;;;;;;;4.40;99.90;;;;;;5062962;28;19924;-71
2023/01/29 14:35:23;;;;;;;;;;;4.40;99.90;;;;;;4995160;28;73211;-71
2023/01/29 14:37:51;;;;;;;;;;;4.40;99.90;;;;;;5040750;28;20305;-70
2023/01/29 14:40:17;;;;;;;;;;;4.40;99.90;;;;;;5003703;28;212369;-71
2023/01/29 14:42:51;;;;;;;;;;;4.30;99.90;;;;;;5044320;28;19929;-69
2023/01/29 14:45:23;;;;;;;;;;;4.30;99.90;;;;;;4997740;28;208262;-69
2023/01/29 14:47:49;;;;;;;;;;;4.30;99.90;;;;;;5084959;28;19928;-69
2023/01/29 14:50:18;;;;;;;;;;;4.30;99.90;;;;;;5018755;28;200395;-69
2023/01/29 14:52:45;;;;;;;;;;;4.30;99.90;;;;;;5056815;28;20628;-72
2023/01/29 14:55:23;;;;;;;;;;;4.30;99.90;;;;;;5005631;28;212049;-70
2023/01/29 14:57:50;;;;;;;;;;;4.30;99.90;;;;;;5059771;28;19931;-71
2023/01/29 15:00:25;;;;;;;;;;;4.30;99.90;;;;;;4999442;28;210283;-71
2023/01/29 15:02:52;;;;;;;;;;;4.30;99.90;;;;;;5040621;28;20408;-71
2023/01/29 15:05:20;;;;;;;;;;;4.30;99.90;;;;;;4987700;28;134886;-69